Time;durP1;ratioP1;P1;durP2;ratioP2;P2;SDS_P1;SDS_P2;PMS_P1;PMS_P2;Temp;Humidity;BMP_temperature;BMP_pressure;BME280_temperature;BME280_humidity;BME280_pressure;Samples;Min_cycle;Max_cycle;Signal;HPM_P1;HPM_P2
2021/03/29 00:02:25;;;;;;;9.07;3.43;;;;;;;5.79;61.90;97560.00;4999934;28;20662;-75
2021/03/29 00:04:51;;;;;;;8.13;3.37;;;;;;;5.71;62.50;97554.44;4970781;28;20616;-76
2021/03/29 00:07:18;;;;;;;9.13;3.60;;;;;;;5.62;62.27;97553.22;4988473;28;20117;-76
2021/03/29 00:09:45;;;;;;;9.63;3.57;;;;;;;5.63;62.32;97550.53;4999510;28;20033;-76
2021/03/29 00:12:12;;;;;;;8.70;3.30;;;;;;;5.62;62.15;97548.84;4972683;28;20030;-75
2021/03/29 00:14:40;;;;;;;10.97;4.23;;;;;;;5.56;62.80;97551.00;4989402;28;20029;-77
2021/03/29 00:17:06;;;;;;;10.13;5.03;;;;;;;5.48;63.15;97554.09;4986177;28;20034;-76
2021/03/29 00:19:35;;;;;;;8.10;3.90;;;;;;;5.55;63.43;97555.38;4997622;28;20418;-76
2021/03/29 00:22:01;;;;;;;12.13;4.43;;;;;;;5.39;63.44;97557.28;4989262;28;20033;-76
2021/03/29 00:24:27;;;;;;;10.47;4.40;;;;;;;5.39;63.54;97559.88;4984192;28;20069;-76
2021/03/29 00:26:53;;;;;;;10.30;3.47;;;;;;;5.16;64.80;97561.28;4996396;28;20030;-76
2021/03/29 00:29:19;;;;;;;8.00;3.03;;;;;;;5.17;64.43;97566.41;4990579;28;20042;-76
2021/03/29 00:31:46;;;;;;;9.53;3.87;;;;;;;5.12;64.41;97559.78;4993476;28;20402;-76
2021/03/29 00:34:12;;;;;;;8.73;3.53;;;;;;;5.03;65.24;97565.56;4989076;28;20053;-76
2021/03/29 00:36:38;;;;;;;9.93;3.63;;;;;;;5.05;65.48;97572.38;4998687;28;20030;-76
2021/03/29 00:39:07;;;;;;;10.53;3.67;;;;;;;4.99;65.58;97564.91;5005934;28;20052;-76
2021/03/29 00:41:35;;;;;;;12.17;3.60;;;;;;;5.03;65.05;97562.94;4993509;28;20038;-76
2021/03/29 00:44:01;;;;;;;8.73;3.50;;;;;;;4.96;65.89;97565.94;4991280;28;20571;-76
2021/03/29 00:46:29;;;;;;;9.07;3.17;;;;;;;5.02;65.22;97571.72;5000475;28;20108;-76
2021/03/29 00:48:56;;;;;;;8.23;3.63;;;;;;;5.09;65.36;97576.47;5001586;28;20045;-76
2021/03/29 00:51:28;;;;;;;9.47;3.07;;;;;;;5.06;65.24;97576.63;5006182;28;20086;-76
2021/03/29 00:54:02;;;;;;;9.57;3.40;;;;;;;5.04;65.29;97570.69;5020460;28;20061;-76
2021/03/29 00:56:29;;;;;;;11.10;3.53;;;;;;;5.06;65.70;97576.63;4998153;28;20488;-76
2021/03/29 00:58:56;;;;;;;8.73;3.17;;;;;;;5.01;65.38;97583.06;5002815;28;20479;-76
2021/03/29 01:01:25;;;;;;;8.60;3.47;;;;;;;4.97;65.50;97575.44;4988848;28;20478;-75
2021/03/29 01:03:54;;;;;;;11.23;3.70;;;;;;;4.88;66.26;97580.34;4982020;28;20477;-76
2021/03/29 01:06:23;;;;;;;10.80;3.37;;;;;;;4.92;66.02;97581.84;4993708;28;20452;-76
2021/03/29 01:08:52;;;;;;;13.47;4.47;;;;;;;4.96;65.50;97576.38;4984574;28;20457;-76
2021/03/29 01:11:23;;;;;;;11.77;3.60;;;;;;;5.01;65.38;97578.69;5000289;28;20978;-76
2021/03/29 01:13:56;;;;;;;8.63;2.93;;;;;;;5.02;65.25;97574.31;4990817;28;20452;-76
2021/03/29 01:16:26;;;;;;;9.50;3.65;;;;;;;5.03;65.01;97570.78;4996541;28;21005;-76
2021/03/29 01:18:55;;;;;;;8.77;3.50;;;;;;;4.95;65.88;97577.28;4993752;28;20033;-76
2021/03/29 01:21:39;;;;;;;10.57;3.47;;;;;;;5.03;65.83;97574.25;4982283;28;20526;-75
2021/03/29 01:24:10;;;;;;;;;;;;;;;5.08;64.92;97579.16;5074151;28;20493;-76
2021/03/29 01:26:45;;;;;;;10.63;3.40;;;;;;;5.10;64.92;97574.72;5084911;28;19917;-76
2021/03/29 01:29:13;;;;;;;12.53;4.20;;;;;;;5.08;64.12;97579.16;4984351;28;20481;-76
2021/03/29 01:31:41;;;;;;;9.40;3.27;;;;;;;5.07;64.38;97578.34;4999047;28;20492;-76
2021/03/29 01:34:09;;;;;;;7.67;2.97;;;;;;;4.97;65.22;97578.03;5010203;28;20569;-76
2021/03/29 01:36:35;;;;;;;7.13;2.83;;;;;;;4.85;65.54;97586.59;5089270;27;20452;-76
2021/03/29 01:39:04;;;;;;;7.67;3.07;;;;;;;4.83;65.80;97591.06;4990493;28;20484;-76
2021/03/29 01:41:30;;;;;;;10.10;3.10;;;;;;;4.84;65.93;97587.53;5002790;28;20452;-76
2021/03/29 01:43:57;;;;;;;10.57;3.73;;;;;;;4.75;66.26;97587.22;5085533;28;20468;-76
2021/03/29 01:46:24;;;;;;;8.93;3.10;;;;;;;4.79;65.59;97599.13;4993845;28;20057;-76
2021/03/29 01:48:50;;;;;;;9.60;3.07;;;;;;;4.76;66.10;97589.72;5073087;28;20475;-76
2021/03/29 01:51:17;;;;;;;7.73;2.63;;;;;;;4.73;66.12;97592.53;4995535;28;20018;-77
2021/03/29 01:53:44;;;;;;;8.10;2.77;;;;;;;4.68;66.25;97587.56;4994458;28;20502;-76
2021/03/29 01:56:11;;;;;;;9.00;3.10;;;;;;;4.67;66.65;97590.28;4989812;28;20456;-75
2021/03/29 01:58:37;;;;;;;9.57;3.00;;;;;;;4.66;66.44;97583.38;4987147;28;20890;-75
2021/03/29 02:01:07;;;;;;;7.70;3.37;;;;;;;4.69;66.32;97584.06;4986447;28;20519;-76
2021/03/29 02:03:34;;;;;;;7.50;2.97;;;;;;;4.63;66.35;97583.59;5075677;28;20038;-76
2021/03/29 02:06:03;;;;;;;15.13;3.37;;;;;;;4.61;66.48;97591.47;4977008;28;20495;-76
2021/03/29 02:08:30;;;;;;;9.70;3.37;;;;;;;4.54;66.59;97589.31;4972264;28;20472;-76
2021/03/29 02:10:58;;;;;;;10.87;3.43;;;;;;;4.63;66.34;97588.78;4994925;28;20472;-76
2021/03/29 02:13:30;;;;;;;9.40;3.10;;;;;;;4.61;66.32;97590.63;5002596;28;20830;-76
2021/03/29 02:16:00;;;;;;;7.13;3.13;;;;;;;4.58;66.53;97589.03;5071814;28;20523;-76
2021/03/29 02:18:30;;;;;;;8.37;2.87;;;;;;;4.56;66.54;97579.63;4978533;28;20541;-76
2021/03/29 02:21:08;;;;;;;7.53;3.27;;;;;;;4.55;67.00;97584.00;4995782;28;20473;-76
2021/03/29 02:23:35;;;;;;;7.63;3.13;;;;;;;4.50;66.73;97588.66;4989506;28;20472;-76
2021/03/29 02:26:04;;;;;;;10.73;3.27;;;;;;;4.52;66.63;97592.00;4991419;28;20445;-76
2021/03/29 02:28:31;;;;;;;10.97;3.60;;;;;;;4.34;67.48;97587.84;4997944;28;20469;-76
2021/03/29 02:30:58;;;;;;;6.77;2.60;;;;;;;4.26;68.12;97588.28;4994003;28;20557;-76
2021/03/29 02:33:24;;;;;;;8.03;3.33;;;;;;;4.32;68.21;97590.53;4992745;28;20529;-75
2021/03/29 02:35:52;;;;;;;6.47;2.80;;;;;;;4.35;67.88;97592.97;5075328;28;20457;-76
2021/03/29 02:38:18;;;;;;;7.53;3.13;;;;;;;4.33;67.96;97587.00;4983847;28;20504;-76
2021/03/29 02:40:47;;;;;;;8.73;3.30;;;;;;;4.41;67.44;97594.38;4983186;28;20501;-77
2021/03/29 02:43:14;;;;;;;11.33;3.50;;;;;;;4.30;67.58;97592.41;5071727;28;21055;-76
2021/03/29 02:45:45;;;;;;;9.13;3.10;;;;;;;4.30;67.99;97595.00;4994334;28;20476;-75
2021/03/29 02:48:15;;;;;;;11.33;3.20;;;;;;;4.23;68.29;97597.09;4996975;28;20476;-76
2021/03/29 02:50:44;;;;;;;10.73;3.20;;;;;;;4.23;67.98;97585.88;4993416;28;20476;-76
2021/03/29 02:53:14;;;;;;;8.53;3.10;;;;;;;4.16;68.17;97589.75;5000231;28;20457;-76
2021/03/29 02:55:40;;;;;;;10.97;2.93;;;;;;;4.28;68.39;97591.63;4996431;28;20484;-76
2021/03/29 02:58:07;;;;;;;7.03;3.00;;;;;;;4.18;68.22;97588.69;4992385;28;21033;-76
2021/03/29 03:00:34;;;;;;;13.07;3.50;;;;;;;4.17;68.47;97607.03;4997993;28;20489;-76
2021/03/29 03:03:03;;;;;;;8.97;3.00;;;;;;;4.15;68.24;97603.66;4994329;28;20472;-76
2021/03/29 03:05:32;;;;;;;7.67;3.43;;;;;;;4.14;68.23;97596.78;4988688;28;20790;-76
2021/03/29 03:07:59;;;;;;;6.17;3.17;;;;;;;4.13;68.02;97600.31;5082864;27;20501;-76
2021/03/29 03:10:27;;;;;;;8.83;3.23;;;;;;;4.07;67.87;97605.88;5008798;28;20497;-76
2021/03/29 03:12:55;;;;;;;7.57;2.70;;;;;;;4.06;67.99;97604.16;4994990;28;20521;-76
2021/03/29 03:15:24;;;;;;;10.10;3.77;;;;;;;4.10;67.87;97608.31;4996341;28;21219;-76
2021/03/29 03:17:51;;;;;;;7.07;2.43;;;;;;;4.06;68.60;97609.38;5003308;28;20521;-76
2021/03/29 03:20:17;;;;;;;7.40;2.40;;;;;;;4.09;67.71;97609.22;4988418;28;20473;-76
2021/03/29 03:22:53;;;;;;;6.87;2.90;;;;;;;4.03;68.70;97613.00;4987541;28;20461;-76
2021/03/29 03:25:25;;;;;;;6.80;2.57;;;;;;;4.04;68.39;97613.84;4988946;28;20450;-76
2021/03/29 03:27:51;;;;;;;11.23;4.07;;;;;;;4.09;67.61;97612.69;4993490;28;20540;-76
2021/03/29 03:30:24;;;;;;;9.73;2.80;;;;;;;4.15;67.13;97612.31;4988634;28;20457;-76
2021/03/29 03:32:51;;;;;;;6.28;2.35;;;;;;;4.17;66.61;97617.44;4998788;28;20486;-77
2021/03/29 03:35:19;;;;;;;7.33;2.27;;;;;;;4.22;66.54;97618.84;4994730;28;20110;-76
2021/03/29 03:37:50;;;;;;;7.63;2.57;;;;;;;4.24;66.24;97616.16;4985035;28;20464;-76
2021/03/29 03:40:19;;;;;;;7.13;2.50;;;;;;;4.21;66.53;97617.19;5067964;28;20556;-76
2021/03/29 03:42:47;;;;;;;7.93;3.03;;;;;;;4.20;67.15;97622.47;4978467;28;20430;-76
2021/03/29 03:45:13;;;;;;;8.10;2.40;;;;;;;4.15;66.60;97619.28;4988432;28;20549;-77
2021/03/29 03:47:41;;;;;;;8.03;2.80;;;;;;;4.14;66.56;97617.63;4985843;28;20461;-76
2021/03/29 03:50:11;;;;;;;8.23;2.90;;;;;;;4.14;66.77;97615.00;5096467;27;20437;-76
2021/03/29 03:52:40;;;;;;;9.17;2.73;;;;;;;4.14;66.29;97617.63;5071711;28;20453;-76
2021/03/29 03:55:07;;;;;;;7.73;2.73;;;;;;;4.10;67.13;97619.56;4971063;28;20465;-76
2021/03/29 03:57:36;;;;;;;8.90;3.20;;;;;;;4.07;67.01;97624.09;4987569;28;20465;-76
2021/03/29 04:00:05;;;;;;;8.07;3.40;;;;;;;3.91;67.98;97629.28;5078189;28;20464;-75
2021/03/29 04:02:39;;;;;;;13.83;3.97;;;;;;;3.88;68.23;97625.09;4988865;28;20453;-75
2021/03/29 04:05:09;;;;;;;8.03;2.83;;;;;;;3.85;68.11;97624.41;4999897;28;20456;-75
2021/03/29 04:07:35;;;;;;;7.37;2.93;;;;;;;3.80;68.29;97635.09;5013902;28;20441;-76
2021/03/29 04:10:13;;;;;;;8.07;2.50;;;;;;;3.72;68.46;97632.91;4994435;28;20819;-75
2021/03/29 04:12:39;;;;;;;6.73;2.43;;;;;;;3.72;69.21;97637.25;5001436;28;20039;-76
2021/03/29 04:15:06;;;;;;;10.43;5.33;;;;;;;3.69;69.05;97624.41;4999204;28;20552;-75
2021/03/29 04:17:31;;;;;;;9.50;4.40;;;;;;;3.65;69.17;97628.94;4989665;28;20027;-76
2021/03/29 04:19:57;;;;;;;13.37;4.97;;;;;;;3.64;69.16;97635.06;4968503;28;20465;-76
2021/03/29 04:22:23;;;;;;;11.57;4.00;;;;;;;3.62;69.07;97636.06;4982326;28;20099;-75
2021/03/29 04:24:49;;;;;;;11.17;3.70;;;;;;;3.64;68.99;97634.22;4991177;28;20038;-76
2021/03/29 04:27:15;;;;;;;9.87;4.43;;;;;;;3.59;69.33;97642.28;4987236;28;20030;-75
2021/03/29 04:29:41;;;;;;;8.67;3.40;;;;;;;3.58;68.88;97644.94;4994388;28;20536;-76
2021/03/29 04:32:10;;;;;;;8.77;3.90;;;;;;;3.59;68.86;97637.09;4995808;28;20040;-76
2021/03/29 04:34:36;;;;;;;8.93;3.70;;;;;;;3.61;68.99;97635.22;4981416;28;20511;-75
2021/03/29 04:37:02;;;;;;;10.50;4.70;;;;;;;3.60;68.68;97643.13;4977291;28;20469;-75
2021/03/29 04:39:28;;;;;;;9.43;4.20;;;;;;;3.53;69.40;97638.25;4996401;28;20881;-76
2021/03/29 04:41:54;;;;;;;9.47;4.27;;;;;;;3.50;69.03;97643.59;5084074;28;20470;-77
2021/03/29 04:44:20;;;;;;;8.07;3.70;;;;;;;3.54;68.94;97644.28;4994859;28;20105;-76
2021/03/29 04:46:45;;;;;;;8.87;3.33;;;;;;;3.56;68.74;97649.41;5000409;28;20060;-76
2021/03/29 04:49:11;;;;;;;8.73;3.20;;;;;;;3.62;68.54;97642.13;4981787;28;20069;-76
2021/03/29 04:51:37;;;;;;;7.63;2.70;;;;;;;3.64;68.23;97645.47;4983478;28;20262;-76
2021/03/29 04:54:03;;;;;;;9.20;3.17;;;;;;;3.63;68.09;97640.34;5070595;28;20649;-76
2021/03/29 04:56:28;;;;;;;9.73;3.40;;;;;;;3.62;68.66;97644.72;5005736;28;20346;-76
2021/03/29 04:58:54;;;;;;;7.07;2.10;;;;;;;3.64;68.32;97649.84;4957987;28;20489;-76
2021/03/29 05:01:20;;;;;;;7.23;2.30;;;;;;;3.69;68.12;97661.69;4985798;28;20038;-76
2021/03/29 05:03:45;;;;;;;6.83;2.77;;;;;;;3.66;68.57;97655.81;4974072;28;20026;-76
2021/03/29 05:06:11;;;;;;;5.60;2.70;;;;;;;3.67;68.47;97654.88;4985894;28;20049;-76
2021/03/29 05:08:37;;;;;;;7.30;2.70;;;;;;;3.66;68.49;97658.41;4993918;28;20501;-76
2021/03/29 05:11:03;;;;;;;7.83;2.87;;;;;;;3.65;68.17;97651.50;4991366;28;20037;-76
2021/03/29 05:13:28;;;;;;;9.77;3.00;;;;;;;3.63;68.18;97654.19;4979082;28;20022;-76
2021/03/29 05:15:54;;;;;;;6.77;2.87;;;;;;;3.73;67.47;97654.56;4990630;28;20037;-76
2021/03/29 05:18:20;;;;;;;13.43;5.93;;;;;;;3.76;67.94;97650.03;4988250;28;20859;-76
2021/03/29 05:20:46;;;;;;;12.80;5.20;;;;;;;3.88;66.74;97658.09;5000628;28;20066;-76
2021/03/29 05:23:11;;;;;;;10.27;5.33;;;;;;;3.96;67.22;97661.13;4991829;28;20078;-76
2021/03/29 05:25:37;;;;;;;18.33;7.80;;;;;;;4.03;67.16;97659.88;4975439;28;20088;-76
2021/03/29 05:28:03;;;;;;;23.80;14.03;;;;;;;4.03;66.82;97656.44;4978302;28;20684;-75
2021/03/29 05:30:28;;;;;;;34.53;18.33;;;;;;;4.13;66.34;97668.84;4962815;28;20848;-75
2021/03/29 05:32:54;;;;;;;25.43;14.50;;;;;;;4.27;65.20;97668.09;4970853;28;20033;-75
2021/03/29 05:35:20;;;;;;;23.60;13.00;;;;;;;4.34;64.78;97666.81;4978348;28;20034;-76
2021/03/29 05:37:45;;;;;;;18.93;10.27;;;;;;;4.46;64.70;97663.53;5003695;28;20030;-76
2021/03/29 05:40:16;;;;;;;13.67;7.60;;;;;;;4.67;64.37;97656.25;4984036;28;20041;-77
2021/03/29 05:42:42;;;;;;;20.30;8.37;;;;;;;4.81;64.15;97655.47;5077635;28;20030;-77
2021/03/29 05:45:10;;;;;;;38.80;12.13;;;;;;;5.04;62.58;97659.34;4993235;28;20446;-77
2021/03/29 05:47:38;;;;;;;46.70;16.03;;;;;;;5.31;62.15;97654.25;5092773;27;20681;-77
2021/03/29 05:50:07;;;;;;;39.33;14.23;;;;;;;5.64;60.95;97655.78;5000894;28;20460;-77
2021/03/29 05:52:34;;;;;;;36.93;11.93;;;;;;;5.94;60.35;97658.28;4981824;28;20901;-77
2021/03/29 05:55:00;;;;;;;64.77;20.77;;;;;;;5.95;58.63;97662.56;4980281;28;20682;-77
2021/03/29 05:57:26;;;;;;;55.30;17.67;;;;;;;6.07;57.57;97663.56;4979399;28;20034;-77
2021/03/29 05:59:52;;;;;;;29.60;8.83;;;;;;;5.93;59.93;97666.19;4992631;28;20514;-77
2021/03/29 06:02:30;;;;;;;22.33;8.53;;;;;;;5.99;60.29;97669.28;4979216;28;20485;-77
2021/03/29 06:04:57;;;;;;;18.80;6.77;;;;;;;6.57;58.37;97667.34;4988079;28;20065;-77
2021/03/29 06:07:28;;;;;;;18.63;6.17;;;;;;;7.05;56.94;97670.31;4974748;28;20030;-77
2021/03/29 06:10:05;;;;;;;15.10;5.83;;;;;;;7.54;56.20;97672.22;4972229;28;20038;-77
2021/03/29 06:12:43;;;;;;;18.90;6.47;;;;;;;7.44;55.37;97679.03;5003290;28;20099;-76
2021/03/29 06:15:10;;;;;;;12.37;5.00;;;;;;;7.82;54.37;97673.78;4982015;28;20038;-77
2021/03/29 06:17:36;;;;;;;11.87;4.63;;;;;;;8.20;55.06;97670.25;5003652;28;20092;-77
2021/03/29 06:20:04;;;;;;;13.47;5.00;;;;;;;8.52;54.47;97669.75;4977971;28;20034;-77
2021/03/29 06:22:31;;;;;;;9.23;4.60;;;;;;;8.35;53.35;97674.41;4981925;28;20130;-77
2021/03/29 06:24:59;;;;;;;33.47;15.43;;;;;;;9.18;50.90;97673.59;4989209;28;20049;-77
2021/03/29 06:27:28;;;;;;;15.53;7.20;;;;;;;8.77;54.19;97676.69;5000686;28;20044;-77
2021/03/29 06:30:29;;;;;;;9.33;4.40;;;;;;;8.19;56.10;97677.28;4990942;28;20063;-77
2021/03/29 06:33:03;;;;;;;9.53;4.40;;;;;;;8.29;56.82;97676.63;5073543;28;20042;-76
2021/03/29 06:35:47;;;;;;;10.73;4.47;;;;;;;8.48;55.96;97672.63;4965248;28;20501;-76
2021/03/29 06:38:23;;;;;;;8.97;4.30;;;;;;;8.72;55.33;97682.28;4982192;28;20035;-76
2021/03/29 06:40:52;;;;;;;13.70;4.80;;;;;;;8.38;56.02;97686.47;4993384;28;20097;-76
2021/03/29 06:43:20;;;;;;;11.17;4.33;;;;;;;8.10;57.92;97687.56;5020267;28;20026;-76
2021/03/29 06:45:55;;;;;;;11.70;4.43;;;;;;;8.12;58.12;97689.16;5024090;28;20037;-76
2021/03/29 06:48:35;;;;;;;8.33;4.67;;;;;;;8.31;57.95;97695.69;4999679;28;20038;-76
2021/03/29 06:51:13;;;;;;;10.17;4.93;;;;;;;8.36;57.78;97698.84;4975392;28;20042;-77
2021/03/29 06:54:08;;;;;;;10.33;4.77;;;;;;;8.26;57.92;97702.09;4997932;28;20034;-77
2021/03/29 06:56:44;;;;;;;9.23;4.73;;;;;;;8.16;59.18;97695.84;4996953;28;20046;-78
2021/03/29 06:59:20;;;;;;;12.47;5.40;;;;;;;8.19;60.04;97692.16;4986123;28;20031;-77
2021/03/29 07:01:46;;;;;;;11.70;4.90;;;;;;;7.93;61.75;97707.09;4985221;28;20061;-77
2021/03/29 07:04:12;;;;;;;10.27;4.73;;;;;;;8.03;61.44;97702.88;4982021;28;20478;-76
2021/03/29 07:06:41;;;;;;;9.73;4.30;;;;;;;8.03;61.16;97706.34;4990960;28;20034;-77
2021/03/29 07:09:09;;;;;;;10.30;4.33;;;;;;;7.90;60.96;97712.53;5080850;28;20034;-77
2021/03/29 07:11:36;;;;;;;12.63;4.80;;;;;;;7.66;62.55;97718.53;4975841;28;20026;-77
2021/03/29 07:14:04;;;;;;;9.13;4.73;;;;;;;7.74;62.36;97712.75;4986517;28;20087;-77
2021/03/29 07:16:30;;;;;;;27.73;19.27;;;;;;;7.98;62.45;97705.84;5076944;28;20014;-77
2021/03/29 07:19:03;;;;;;;23.57;14.70;;;;;;;8.17;61.85;97705.38;4989530;28;20042;-77
2021/03/29 07:21:29;;;;;;;20.58;10.63;;;;;;;8.33;62.29;97709.53;4977714;28;20050;-77
2021/03/29 07:24:05;;;;;;;16.37;7.57;;;;;;;8.56;61.54;97710.56;4988004;28;20033;-77
2021/03/29 07:26:36;;;;;;;13.83;6.03;;;;;;;8.90;60.55;97712.38;5089730;27;20030;-77
2021/03/29 07:29:25;;;;;;;11.00;5.47;;;;;;;9.23;57.58;97715.25;5004208;28;20038;-77
2021/03/29 07:32:00;;;;;;;12.43;5.10;;;;;;;9.52;58.66;97708.63;4990475;28;20068;-77
2021/03/29 07:34:50;;;;;;;11.83;5.57;;;;;;;8.58;61.33;97725.19;4979081;28;20397;-77
2021/03/29 07:37:47;;;;;;;12.07;6.27;;;;;;;8.34;61.32;97722.53;5088809;27;20026;-77
2021/03/29 07:40:18;;;;;;;9.47;5.30;;;;;;;8.54;60.34;97718.50;4980633;28;20579;-77
2021/03/29 07:42:45;;;;;;;9.80;4.83;;;;;;;9.31;57.84;97716.34;5014917;28;20544;-77
2021/03/29 07:45:19;;;;;;;9.53;5.13;;;;;;;9.93;56.61;97720.41;4993543;28;20031;-77
2021/03/29 07:47:55;;;;;;;9.87;3.57;;;;;;;10.36;54.35;97709.16;4991420;28;20034;-77
2021/03/29 07:50:24;;;;;;;11.37;3.77;;;;;;;10.92;54.74;97724.84;5093499;27;20048;-77
2021/03/29 07:52:54;;;;;;;9.27;4.83;;;;;;;11.05;54.20;97722.88;4984033;28;20037;-77
2021/03/29 07:55:23;;;;;;;8.13;2.47;;;;;;;11.03;47.61;97721.31;4990509;28;20034;-77
2021/03/29 07:57:53;;;;;;;7.00;2.00;;;;;;;11.23;45.55;97730.22;4973912;28;20538;-77
2021/03/29 08:00:27;;;;;;;6.63;2.03;;;;;;;11.22;45.38;97725.94;4964354;28;20046;-77
2021/03/29 08:02:57;;;;;;;4.87;1.83;;;;;;;11.18;46.15;97727.16;4994969;28;20042;-77
2021/03/29 08:05:46;;;;;;;8.10;2.60;;;;;;;11.39;46.41;97733.25;4990186;28;20063;-77
2021/03/29 08:11:03;;;;;;;7.90;2.60;;;;;;;11.83;46.79;97726.03;4990614;28;20400;-77
2021/03/29 08:13:44;;;;;;;5.10;2.33;;;;;;;12.47;44.87;97720.53;5089592;28;20041;-77
2021/03/29 08:16:13;;;;;;;5.20;1.93;;;;;;;12.77;43.34;97720.59;4994223;28;20034;-77
2021/03/29 08:19:18;;;;;;;6.43;2.00;;;;;;;13.86;40.87;97719.47;4978846;28;20061;-78
2021/03/29 08:21:52;;;;;;;;;;;;;;;14.56;38.88;97733.16;4990189;28;20034;-77
2021/03/29 08:24:25;;;;;;;5.83;2.13;;;;;;;14.76;38.59;97737.34;4998106;28;19990;-77
2021/03/29 08:26:54;;;;;;;7.05;2.45;;;;;;;15.39;37.88;97731.19;4990806;28;20053;-77
2021/03/29 08:29:31;;;;;;;6.77;2.53;;;;;;;15.99;37.22;97726.00;5082229;28;20535;-77
2021/03/29 08:31:57;;;;;;;6.23;2.30;;;;;;;16.10;36.94;97730.22;5004152;28;20022;-78
2021/03/29 08:34:23;;;;;;;5.13;2.40;;;;;;;16.12;36.44;97725.56;4992675;28;20037;-77
2021/03/29 08:36:49;;;;;;;7.97;2.30;;;;;;;16.69;34.56;97723.16;4996939;28;20031;-77
2021/03/29 08:39:16;;;;;;;6.67;2.30;;;;;;;16.41;35.09;97727.06;4998091;28;20487;-77
2021/03/29 08:41:43;;;;;;;6.77;2.37;;;;;;;16.52;32.96;97729.41;4993047;28;20026;-77
2021/03/29 08:44:10;;;;;;;7.20;2.70;;;;;;;17.01;33.13;97731.44;4998255;28;20034;-77
2021/03/29 08:46:37;;;;;;;6.23;1.97;;;;;;;17.03;31.76;97735.56;4975916;28;20046;-77
2021/03/29 08:49:08;;;;;;;5.43;1.97;;;;;;;17.01;31.55;97734.09;5106344;28;20037;-78
2021/03/29 08:51:35;;;;;;;7.57;2.73;;;;;;;17.09;31.18;97734.09;4998825;28;20044;-77
2021/03/29 08:54:05;;;;;;;7.60;2.27;;;;;;;17.81;31.07;97737.00;5025976;28;20059;-78
2021/03/29 08:56:42;;;;;;;5.67;1.90;;;;;;;18.37;30.22;97735.19;4972698;28;20070;-77
2021/03/29 08:59:09;;;;;;;9.70;2.40;;;;;;;17.24;30.99;97739.63;4982581;28;20434;-77
2021/03/29 09:01:35;;;;;;;4.40;1.60;;;;;;;16.67;31.21;97746.41;4980321;28;20034;-77
2021/03/29 09:04:06;;;;;;;4.97;1.40;;;;;;;16.75;31.75;97745.66;5003762;28;20027;-78
2021/03/29 09:06:32;;;;;;;4.05;1.60;;;;;;;17.40;29.41;97739.63;4988274;28;20061;-77
2021/03/29 09:09:18;;;;;;;5.77;1.57;;;;;;;17.41;30.69;97741.28;5038218;28;20023;-77
2021/03/29 09:11:47;;;;;;;6.47;2.38;;;;;;;17.97;30.21;97738.78;4988308;28;20034;-77
2021/03/29 09:14:17;;;;;;;6.20;1.90;;;;;;;17.62;29.49;97746.94;4994471;28;20041;-79
2021/03/29 09:16:55;;;;;;;4.72;1.45;;;;;;;17.96;30.06;97737.97;4994029;28;20472;-77
2021/03/29 09:19:22;;;;;;;6.28;1.85;;;;;;;18.05;29.84;97734.28;4989870;28;20034;-78
2021/03/29 09:21:59;;;;;;;4.53;1.73;;;;;;;17.93;29.40;97740.97;4991756;28;20062;-78
2021/03/29 09:24:27;;;;;;;6.68;1.85;;;;;;;18.46;29.50;97736.00;4999533;28;20028;-77
2021/03/29 09:27:09;;;;;;;3.63;1.60;;;;;;;18.18;28.24;97746.25;5075609;28;20019;-78
2021/03/29 09:29:38;;;;;;;7.00;1.90;;;;;;;17.97;28.80;97744.13;4986654;28;20067;-78
2021/03/29 09:32:15;;;;;;;6.25;2.10;;;;;;;18.93;26.86;97735.97;5001404;28;20034;-78
2021/03/29 09:34:46;;;;;;;12.90;2.42;;;;;;;19.17;26.45;97744.84;5004701;28;20121;-80
2021/03/29 09:37:22;;;;;;;4.53;1.60;;;;;;;18.35;27.34;97745.22;4996698;28;20112;-78
2021/03/29 09:39:56;;;;;;;5.22;1.95;;;;;;;19.79;27.50;97744.75;5073286;28;20866;-79
2021/03/29 09:42:41;;;;;;;4.18;1.80;;;;;;;18.97;28.26;97744.47;4973111;28;20038;-78
2021/03/29 09:45:10;;;;;;;4.70;2.00;;;;;;;19.11;28.25;97743.69;5021123;28;20026;-78
2021/03/29 09:47:36;;;;;;;4.65;1.52;;;;;;;19.85;27.84;97738.69;5083908;28;20042;-79
2021/03/29 09:50:05;;;;;;;6.43;2.50;;;;;;;20.25;26.96;97740.13;5002738;28;20154;-79
2021/03/29 09:52:42;;;;;;;6.03;2.20;;;;;;;20.36;27.74;97735.34;4999214;28;20050;-78
2021/03/29 09:55:11;;;;;;;7.82;2.10;;;;;;;20.01;27.74;97743.03;4966792;28;20041;-78
2021/03/29 09:57:43;;;;;;;8.32;4.15;;;;;;;20.22;26.32;97742.31;4997179;28;20137;-79
2021/03/29 10:00:17;;;;;;;6.13;2.08;;;;;;;19.95;27.66;97738.41;5089553;28;20319;-78
2021/03/29 10:02:44;;;;;;;6.65;1.73;;;;;;;20.11;26.50;97737.41;5010305;28;20029;-78
2021/03/29 10:05:11;;;;;;;6.97;2.42;;;;;;;20.23;25.78;97734.13;4979972;28;20046;-78
2021/03/29 10:07:55;;;;;;;7.13;2.38;;;;;;;20.23;26.14;97738.63;4997769;28;20117;-78
2021/03/29 10:10:27;;;;;;;7.30;1.90;;;;;;;20.75;26.15;97732.38;4981482;28;20149;-79
2021/03/29 10:13:12;;;;;;;7.65;2.25;;;;;;;20.51;25.88;97738.03;5012234;28;20125;-79
2021/03/29 10:15:40;;;;;;;4.72;1.80;;;;;;;20.77;25.69;97738.38;4983990;28;20042;-80
2021/03/29 10:18:14;;;;;;;5.82;2.03;;;;;;;21.79;24.79;97737.38;4993018;28;20021;-82
2021/03/29 10:20:45;;;;;;;5.07;2.03;;;;;;;21.06;24.51;97733.94;4980024;28;20118;-79
2021/03/29 10:23:28;;;;;;;7.80;1.80;;;;;;;20.82;24.61;97730.59;5006634;28;20030;-79
2021/03/29 10:26:30;;;;;;;7.28;2.05;;;;;;;21.39;26.16;97729.84;5006298;28;20034;-80
2021/03/29 10:29:04;;;;;;;6.03;2.45;;;;;;;21.11;24.94;97728.88;4994378;28;20042;-80
2021/03/29 10:31:32;;;;;;;5.22;2.10;;;;;;;21.29;24.34;97726.59;4999401;28;20033;-79
2021/03/29 10:33:58;;;;;;;6.82;2.85;;;;;;;21.68;24.14;97728.00;4994296;28;20060;-79
2021/03/29 10:36:27;;;;;;;5.13;1.80;;;;;;;21.80;25.03;97729.16;4990497;28;20534;-81
2021/03/29 10:38:55;;;;;;;9.10;2.13;;;;;;;21.74;25.20;97721.91;5083391;28;20588;-79
2021/03/29 10:41:22;;;;;;;6.07;1.95;;;;;;;21.41;25.09;97718.91;5084040;28;20033;-79
2021/03/29 10:43:49;;;;;;;7.38;1.85;;;;;;;21.12;24.94;97707.28;4996331;28;20496;-79
2021/03/29 10:46:15;;;;;;;9.95;2.22;;;;;;;21.60;24.91;97717.44;4986033;28;20116;-79
2021/03/29 10:48:41;;;;;;;6.38;2.00;;;;;;;21.05;25.66;97718.94;4988077;28;20026;-79
2021/03/29 10:51:08;;;;;;;7.20;2.10;;;;;;;22.23;23.18;97717.50;4984014;28;20056;-79
2021/03/29 10:53:37;;;;;;;3.05;1.50;;;;;;;22.36;24.30;97705.00;5089325;28;20060;-79
2021/03/29 10:56:03;;;;;;;6.18;1.88;;;;;;;21.61;25.06;97719.09;4989615;28;20038;-79
2021/03/29 10:58:29;;;;;;;6.50;2.00;;;;;;;21.96;24.57;97717.31;4996270;28;20394;-79
2021/03/29 11:00:55;;;;;;;6.07;1.95;;;;;;;21.89;23.50;97706.53;4985697;28;20119;-79
2021/03/29 11:03:21;;;;;;;5.68;2.33;;;;;;;22.43;23.75;97707.72;4999331;28;20060;-79
2021/03/29 11:05:47;;;;;;;4.10;1.88;;;;;;;22.84;23.24;97709.59;5076217;28;20018;-80
2021/03/29 11:08:12;;;;;;;7.13;1.98;;;;;;;21.56;24.55;97711.66;4999887;28;20032;-79
2021/03/29 11:10:38;;;;;;;8.40;2.35;;;;;;;22.01;23.26;97703.34;4996103;28;20034;-79
2021/03/29 11:13:04;;;;;;;5.47;1.73;;;;;;;21.76;23.51;97714.47;5092766;27;20047;-80
2021/03/29 11:15:32;;;;;;;6.55;1.67;;;;;;;21.85;24.28;97712.50;5004072;28;20034;-79
2021/03/29 11:17:57;;;;;;;4.80;1.58;;;;;;;22.54;23.27;97715.22;5002459;28;20791;-79
2021/03/29 11:20:23;;;;;;;8.02;2.53;;;;;;;21.91;23.94;97714.41;4981555;28;20053;-78
2021/03/29 11:22:49;;;;;;;5.90;1.83;;;;;;;21.82;23.95;97712.88;4983064;28;20041;-79
2021/03/29 11:25:15;;;;;;;6.03;1.67;;;;;;;21.69;24.44;97713.59;4976963;28;20114;-79
2021/03/29 11:27:41;;;;;;;6.43;1.60;;;;;;;21.59;24.62;97711.25;4998697;28;20384;-79
2021/03/29 11:30:10;;;;;;;4.75;1.67;;;;;;;21.44;24.13;97705.16;5090101;28;20036;-79
2021/03/29 11:32:37;;;;;;;5.43;1.60;;;;;;;21.54;23.64;97700.31;5101295;27;20035;-80
2021/03/29 11:35:04;;;;;;;6.15;1.40;;;;;;;21.78;23.22;97707.09;4989008;28;20084;-78
2021/03/29 11:37:30;;;;;;;4.65;1.75;;;;;;;21.98;23.32;97704.56;5001865;28;20091;-79
2021/03/29 11:39:56;;;;;;;5.40;1.60;;;;;;;21.69;23.19;97700.22;5007090;28;20026;-80
2021/03/29 11:42:22;;;;;;;6.80;2.00;;;;;;;23.01;22.52;97691.31;4991439;28;20473;-80
2021/03/29 11:44:47;;;;;;;5.47;1.48;;;;;;;22.42;22.43;97690.00;4984740;28;20085;-81
2021/03/29 11:47:13;;;;;;;5.32;1.77;;;;;;;21.47;23.90;97696.75;4985678;28;20042;-81
2021/03/29 11:49:39;;;;;;;8.13;2.15;;;;;;;21.26;24.28;97694.03;5081080;28;20055;-80
2021/03/29 11:52:05;;;;;;;5.82;1.50;;;;;;;21.35;24.17;97695.59;4993894;28;20049;-80